createdAt,value
2019-02-27T00:00:35.501Z,1047.56
2019-02-27T00:01:35.484Z,1047.58
2019-02-27T00:02:35.469Z,1047.57
2019-02-27T00:03:35.455Z,1047.59
2019-02-27T00:04:35.641Z,1047.58
2019-02-27T00:05:35.423Z,1047.57
2019-02-27T00:06:35.408Z,1047.61
2019-02-27T00:07:35.392Z,1047.59
2019-02-27T00:08:35.376Z,1047.55
2019-02-27T00:09:35.362Z,1047.56
2019-02-27T00:10:36.838Z,1047.55
2019-02-27T00:11:35.333Z,1047.57
2019-02-27T00:12:35.317Z,1047.56
2019-02-27T00:13:35.302Z,1047.55
2019-02-27T00:14:35.286Z,1047.53
2019-02-27T00:15:37.725Z,1047.54
2019-02-27T00:16:35.256Z,1047.54
2019-02-27T00:17:35.241Z,1047.59
2019-02-27T00:18:35.225Z,1047.61
2019-02-27T00:19:35.210Z,1047.6
2019-02-27T00:20:37.023Z,1047.61
2019-02-27T00:21:35.178Z,1047.62
2019-02-27T00:22:35.165Z,1047.57
2019-02-27T00:23:35.158Z,1047.6
2019-02-27T00:24:35.135Z,1047.61
2019-02-27T00:25:36.079Z,1047.6
2019-02-27T00:26:35.104Z,1047.6
2019-02-27T00:27:35.101Z,1047.58
2019-02-27T00:28:35.072Z,1047.54
2019-02-27T00:29:35.058Z,1047.55
2019-02-27T00:30:37.855Z,1047.51
2019-02-27T00:31:35.027Z,1047.47
2019-02-27T00:32:35.014Z,1047.45
2019-02-27T00:34:34.980Z,1047.44
2019-02-27T00:35:38.610Z,1047.41
2019-02-27T00:36:34.952Z,1047.4
2019-02-27T00:37:34.934Z,1047.39
2019-02-27T00:38:34.919Z,1047.39
2019-02-27T00:39:34.906Z,1047.4
2019-02-27T00:40:38.416Z,1047.37
2019-02-27T00:41:34.873Z,1047.38
2019-02-27T00:42:34.857Z,1047.36
2019-02-27T00:43:34.842Z,1047.35
2019-02-27T00:44:34.942Z,1047.35
2019-02-27T00:45:34.812Z,1047.36
2019-02-27T00:46:34.795Z,1047.32
2019-02-27T00:47:34.780Z,1047.34
2019-02-27T00:48:34.764Z,1047.32
2019-02-27T00:49:34.748Z,1047.31
2019-02-27T00:50:38.871Z,1047.35
2019-02-27T00:51:34.717Z,1047.34
2019-02-27T00:52:34.702Z,1047.34
2019-02-27T00:53:34.687Z,1047.36
2019-02-27T00:54:34.671Z,1047.37
2019-02-27T00:55:38.437Z,1047.36
2019-02-27T00:56:34.642Z,1047.35
2019-02-27T00:57:34.625Z,1047.36
2019-02-27T00:58:34.610Z,1047.34
2019-02-27T00:59:34.597Z,1047.32
2019-02-27T01:00:38.869Z,1047.34
2019-02-27T01:01:34.561Z,1047.33
2019-02-27T01:02:34.547Z,1047.33
2019-02-27T01:03:34.531Z,1047.34
2019-02-27T01:04:35.101Z,1047.34
2019-02-27T01:05:34.502Z,1047.3
2019-02-27T01:06:34.484Z,1047.34
2019-02-27T01:07:34.469Z,1047.3
2019-02-27T01:08:34.453Z,1047.32
2019-02-27T01:09:34.438Z,1047.3
2019-02-27T01:10:34.422Z,1047.32
2019-02-27T01:11:34.407Z,1047.3
2019-02-27T01:12:34.393Z,1047.29
2019-02-27T01:13:34.377Z,1047.33
2019-02-27T01:14:36.869Z,1047.33
2019-02-27T01:15:34.365Z,1047.34
2019-02-27T01:16:34.329Z,1047.35
2019-02-27T01:17:34.313Z,1047.38
2019-02-27T01:18:34.297Z,1047.32
2019-02-27T01:19:38.252Z,1047.33
2019-02-27T01:20:34.267Z,1047.29
2019-02-27T01:21:34.250Z,1047.28
2019-02-27T01:22:34.235Z,1047.24
2019-02-27T01:23:34.223Z,1047.21
2019-02-27T01:24:34.205Z,1047.23
2019-02-27T01:25:34.190Z,1047.22
2019-02-27T01:26:34.173Z,1047.19
2019-02-27T01:27:37.843Z,1047.2
2019-02-27T01:28:34.141Z,1047.22
2019-02-27T01:29:34.124Z,1047.2
2019-02-27T01:30:34.110Z,1047.2
2019-02-27T01:31:34.095Z,1047.22
2019-02-27T01:32:34.078Z,1047.15
2019-02-27T01:33:37.713Z,1047.14
2019-02-27T01:34:34.050Z,1047.13
2019-02-27T01:35:34.036Z,1047.09
2019-02-27T01:36:34.016Z,1047.11
2019-02-27T01:37:34.000Z,1047.15
2019-02-27T01:38:37.592Z,1047.07
2019-02-27T01:39:33.969Z,1047.09
2019-02-27T01:40:33.954Z,1047.07
2019-02-27T01:41:33.938Z,1047.04
2019-02-27T01:42:33.923Z,1047.05
2019-02-27T01:43:33.906Z,1047.04
2019-02-27T01:44:33.891Z,1047.05
2019-02-27T01:45:33.875Z,1047.07
2019-02-27T01:46:33.860Z,1047.1
2019-02-27T01:47:36.010Z,1047.13
2019-02-27T01:48:33.828Z,1047.14
2019-02-27T01:49:33.813Z,1047.17
2019-02-27T01:50:33.796Z,1047.14
2019-02-27T01:51:33.781Z,1047.15
2019-02-27T01:52:34.072Z,1047.11
2019-02-27T01:53:33.749Z,1047.11
2019-02-27T01:54:33.738Z,1047.06
2019-02-27T01:55:33.717Z,1047.06
2019-02-27T01:56:33.703Z,1047.08
2019-02-27T01:57:34.090Z,1047.08
2019-02-27T01:58:33.671Z,1047.06
2019-02-27T01:59:33.656Z,1047.06
2019-02-27T02:00:33.641Z,1047.02
2019-02-27T02:01:33.624Z,1047
2019-02-27T02:02:34.867Z,1046.99
2019-02-27T02:03:33.593Z,1047.01
2019-02-27T02:04:33.577Z,1047
2019-02-27T02:05:33.561Z,1047.03
2019-02-27T02:06:33.551Z,1047.01
2019-02-27T02:07:33.530Z,1046.98
2019-02-27T02:08:33.514Z,1046.93
2019-02-27T02:09:33.497Z,1046.91
2019-02-27T02:10:33.483Z,1046.85
2019-02-27T02:11:34.984Z,1046.86
2019-02-27T02:12:33.449Z,1046.84
2019-02-27T02:13:33.435Z,1046.83
2019-02-27T02:14:33.419Z,1046.89
2019-02-27T02:15:33.404Z,1046.93
2019-02-27T02:16:34.301Z,1046.9
2019-02-27T02:17:33.371Z,1046.93
2019-02-27T02:18:33.356Z,1046.91
2019-02-27T02:19:33.338Z,1046.89
2019-02-27T02:20:33.324Z,1046.92
2019-02-27T02:21:34.301Z,1046.9
2019-02-27T02:22:33.292Z,1046.88
2019-02-27T02:23:33.276Z,1046.83
2019-02-27T02:24:33.260Z,1046.83
2019-02-27T02:25:33.244Z,1046.8
2019-02-27T02:26:34.999Z,1046.77
2019-02-27T02:27:33.212Z,1046.77
2019-02-27T02:28:33.196Z,1046.77
2019-02-27T02:29:33.180Z,1046.72
2019-02-27T02:30:33.165Z,1046.74
2019-02-27T02:31:33.150Z,1046.7
2019-02-27T02:32:33.133Z,1046.66
2019-02-27T02:33:33.119Z,1046.63
2019-02-27T02:34:33.101Z,1046.52
2019-02-27T02:35:33.086Z,1046.5
2019-02-27T02:36:33.073Z,1046.46
2019-02-27T02:37:33.672Z,1046.39
2019-02-27T02:38:33.038Z,1046.36
2019-02-27T02:39:33.022Z,1046.31
2019-02-27T02:40:33.005Z,1046.28
2019-02-27T02:41:32.988Z,1046.25
2019-02-27T02:42:32.973Z,1046.21
2019-02-27T02:43:32.959Z,1046.18
2019-02-27T02:44:32.944Z,1046.19
2019-02-27T02:45:33.784Z,1046.09
2019-02-27T02:46:32.911Z,1046.09
2019-02-27T02:47:32.896Z,1046.05
2019-02-27T02:48:32.881Z,1045.97
2019-02-27T02:49:32.861Z,1045.95
2019-02-27T02:50:32.847Z,1045.87
2019-02-27T02:51:32.844Z,1045.81
2019-02-27T02:52:32.816Z,1045.78
2019-02-27T02:53:32.800Z,1045.75
2019-02-27T02:54:36.149Z,1045.68
2019-02-27T02:55:32.771Z,1045.62
2019-02-27T02:56:32.753Z,1045.55
2019-02-27T02:57:36.069Z,1045.5
2019-02-27T02:58:32.724Z,1045.45
2019-02-27T02:59:32.709Z,1045.39
2019-02-27T03:00:37.681Z,1045.39
2019-02-27T03:01:32.678Z,1045.37
2019-02-27T03:02:32.664Z,1045.34
2019-02-27T03:03:35.744Z,1045.35
2019-02-27T03:04:32.631Z,1045.33
2019-02-27T03:05:32.616Z,1045.38
2019-02-27T03:06:34.957Z,1045.37
2019-02-27T03:07:32.585Z,1045.34
2019-02-27T03:08:32.571Z,1045.33
2019-02-27T03:09:32.560Z,1045.3
2019-02-27T03:10:32.544Z,1045.33
2019-02-27T03:11:32.524Z,1045.36
2019-02-27T03:12:32.508Z,1045.34
2019-02-27T03:13:32.497Z,1045.35
2019-02-27T03:14:32.479Z,1045.37
2019-02-27T03:15:32.463Z,1045.35
2019-02-27T03:16:32.450Z,1045.35
2019-02-27T03:17:32.435Z,1045.32
2019-02-27T03:18:32.419Z,1045.29
2019-02-27T03:19:32.413Z,1045.28
2019-02-27T03:20:32.389Z,1045.32
2019-02-27T03:21:32.373Z,1045.24
2019-02-27T03:22:32.358Z,1045.23
2019-02-27T03:23:32.346Z,1045.25
2019-02-27T03:24:32.330Z,1045.22
2019-02-27T03:25:32.313Z,1045.26
2019-02-27T03:26:32.300Z,1045.23
2019-02-27T03:27:32.284Z,1045.22
2019-02-27T03:28:32.267Z,1045.18
2019-02-27T03:29:32.254Z,1045.18
2019-02-27T03:30:36.020Z,1045.17
2019-02-27T03:31:32.225Z,1045.2
2019-02-27T03:32:40.790Z,1045.18
2019-02-27T03:33:32.207Z,1045.14
2019-02-27T03:34:32.191Z,1045.12
2019-02-27T03:35:32.165Z,1045.12
2019-02-27T03:36:32.153Z,1045.08
2019-02-27T03:37:32.137Z,1045.06
2019-02-27T03:38:32.123Z,1045.08
2019-02-27T03:39:34.898Z,1045.07
2019-02-27T03:40:32.094Z,1045.08
2019-02-27T03:41:32.082Z,1045.08
2019-02-27T03:42:34.091Z,1045.09
2019-02-27T03:43:32.047Z,1045.11
2019-02-27T03:44:32.034Z,1045.07
2019-02-27T03:45:32.018Z,1045.06
2019-02-27T03:46:32.004Z,1045.06
2019-02-27T03:47:31.990Z,1045.06
2019-02-27T03:48:31.975Z,1045.05
2019-02-27T03:49:31.960Z,1045.03
2019-02-27T03:50:31.946Z,1045.03
2019-02-27T03:51:31.940Z,1045.04
2019-02-27T03:52:35.841Z,1045.08
2019-02-27T03:53:31.900Z,1045.07
2019-02-27T03:54:31.886Z,1045.08
2019-02-27T03:55:32.817Z,1045.1
2019-02-27T03:56:31.862Z,1045.08
2019-02-27T03:57:31.844Z,1045.11
2019-02-27T03:58:31.827Z,1045.1
2019-02-27T03:59:31.813Z,1045.12
2019-02-27T04:00:31.800Z,1045.14
2019-02-27T04:01:31.784Z,1045.1
2019-02-27T04:02:32.022Z,1045.09
2019-02-27T04:03:31.756Z,1045.11
2019-02-27T04:04:31.763Z,1045.13
2019-02-27T04:05:31.726Z,1045.15
2019-02-27T04:06:31.710Z,1045.18
2019-02-27T04:07:32.692Z,1045.21
2019-02-27T04:08:31.681Z,1045.22
2019-02-27T04:09:31.667Z,1045.21
2019-02-27T04:10:32.253Z,1045.24
2019-02-27T04:11:31.638Z,1045.26
2019-02-27T04:12:31.623Z,1045.24
2019-02-27T04:13:31.609Z,1045.22
2019-02-27T04:14:31.593Z,1045.28
2019-02-27T04:15:31.608Z,1045.29
2019-02-27T04:16:31.576Z,1045.29
2019-02-27T04:17:31.548Z,1045.31
2019-02-27T04:18:31.535Z,1045.28
2019-02-27T04:19:31.523Z,1045.35
2019-02-27T04:20:31.506Z,1045.42
2019-02-27T04:21:31.495Z,1045.4
2019-02-27T04:22:36.190Z,1045.43
2019-02-27T04:23:31.462Z,1045.43
2019-02-27T04:24:31.444Z,1045.41
2019-02-27T04:25:32.246Z,1045.39
2019-02-27T04:26:31.416Z,1045.36
2019-02-27T04:27:31.400Z,1045.36
2019-02-27T04:28:31.393Z,1045.31
2019-02-27T04:29:31.372Z,1045.34
2019-02-27T04:30:31.357Z,1045.32
2019-02-27T04:31:31.361Z,1045.32
2019-02-27T04:32:31.325Z,1045.38
2019-02-27T04:33:31.562Z,1045.41
2019-02-27T04:34:33.184Z,1045.41
2019-02-27T04:35:31.279Z,1045.43
2019-02-27T04:36:31.273Z,1045.42
2019-02-27T04:37:31.250Z,1045.47
2019-02-27T04:38:31.252Z,1045.4
2019-02-27T04:39:31.221Z,1045.44
2019-02-27T04:40:31.204Z,1045.4
2019-02-27T04:41:31.194Z,1045.38
2019-02-27T04:42:31.173Z,1045.36
2019-02-27T04:43:32.156Z,1045.36
2019-02-27T04:44:31.144Z,1045.37
2019-02-27T04:45:31.137Z,1045.33
2019-02-27T04:46:31.112Z,1045.36
2019-02-27T04:47:31.098Z,1045.32
2019-02-27T04:48:31.082Z,1045.34
2019-02-27T04:49:31.067Z,1045.31
2019-02-27T04:50:31.052Z,1045.36
2019-02-27T04:51:31.037Z,1045.35
2019-02-27T04:52:31.022Z,1045.32
2019-02-27T04:53:31.797Z,1045.35
2019-02-27T04:54:30.991Z,1045.32
2019-02-27T04:55:30.976Z,1045.36
2019-02-27T04:56:30.961Z,1045.27
2019-02-27T04:57:33.635Z,1045.29
2019-02-27T04:58:31.395Z,1045.28
2019-02-27T04:59:30.915Z,1045.33
2019-02-27T05:00:30.897Z,1045.31
2019-02-27T05:01:30.883Z,1045.31
2019-02-27T05:02:30.867Z,1045.32
2019-02-27T05:03:30.852Z,1045.29
2019-02-27T05:04:34.785Z,1045.35
2019-02-27T05:05:30.825Z,1045.38
2019-02-27T05:06:30.807Z,1045.42
2019-02-27T05:07:30.792Z,1045.46
2019-02-27T05:08:30.779Z,1045.46
2019-02-27T05:09:31.300Z,1045.46
2019-02-27T05:10:30.747Z,1045.47
2019-02-27T05:11:30.729Z,1045.49
2019-02-27T05:12:30.714Z,1045.47
2019-02-27T05:13:30.702Z,1045.49
2019-02-27T05:14:30.683Z,1045.5
2019-02-27T05:15:30.671Z,1045.51
2019-02-27T05:16:30.652Z,1045.49
2019-02-27T05:17:30.638Z,1045.49
2019-02-27T05:18:30.621Z,1045.51
2019-02-27T05:19:30.605Z,1045.48
2019-02-27T05:20:30.589Z,1045.52
2019-02-27T05:21:30.575Z,1045.5
2019-02-27T05:22:30.557Z,1045.48
2019-02-27T05:23:30.855Z,1045.48
2019-02-27T05:24:30.527Z,1045.44
2019-02-27T05:25:30.512Z,1045.42
2019-02-27T05:26:30.495Z,1045.44
2019-02-27T05:27:30.480Z,1045.47
2019-02-27T05:28:32.057Z,1045.47
2019-02-27T05:29:30.449Z,1045.48
2019-02-27T05:30:30.433Z,1045.54
2019-02-27T05:31:30.418Z,1045.59
2019-02-27T05:32:30.404Z,1045.6
2019-02-27T05:33:35.656Z,1045.61
2019-02-27T05:34:30.379Z,1045.62
2019-02-27T05:35:30.604Z,1045.66
2019-02-27T05:36:31.601Z,1045.64
2019-02-27T05:37:30.325Z,1045.66
2019-02-27T05:38:30.308Z,1045.62
2019-02-27T05:39:30.290Z,1045.66
2019-02-27T05:40:30.275Z,1045.65
2019-02-27T05:41:32.882Z,1045.66
2019-02-27T05:42:30.244Z,1045.65
2019-02-27T05:43:30.228Z,1045.69
2019-02-27T05:44:30.212Z,1045.67
2019-02-27T05:45:31.087Z,1045.67
2019-02-27T05:46:30.181Z,1045.68
2019-02-27T05:47:30.165Z,1045.64
2019-02-27T05:48:30.149Z,1045.65
2019-02-27T05:49:30.158Z,1045.66
2019-02-27T05:50:33.928Z,1045.62
2019-02-27T05:51:30.099Z,1045.59
2019-02-27T05:52:30.084Z,1045.63
2019-02-27T05:53:30.073Z,1045.6
2019-02-27T05:54:32.259Z,1045.62
2019-02-27T05:55:30.037Z,1045.6
2019-02-27T05:56:30.020Z,1045.61
2019-02-27T05:57:31.398Z,1045.6
2019-02-27T05:58:29.988Z,1045.58
2019-02-27T05:59:29.975Z,1045.58
2019-02-27T06:00:29.957Z,1045.54
2019-02-27T06:01:29.942Z,1045.55
2019-02-27T06:02:29.924Z,1045.5
2019-02-27T06:03:29.908Z,1045.55
2019-02-27T06:04:29.893Z,1045.52
2019-02-27T06:05:29.879Z,1045.52
2019-02-27T06:06:30.111Z,1045.54
2019-02-27T06:07:29.845Z,1045.56
2019-02-27T06:08:29.834Z,1045.52
2019-02-27T06:09:29.812Z,1045.48
2019-02-27T06:10:29.796Z,1045.48
2019-02-27T06:11:32.960Z,1045.44
2019-02-27T06:12:29.767Z,1045.4
2019-02-27T06:13:29.749Z,1045.35
2019-02-27T06:14:29.733Z,1045.29
2019-02-27T06:15:29.718Z,1045.27
2019-02-27T06:16:29.702Z,1045.2
2019-02-27T06:17:29.686Z,1045.17
2019-02-27T06:18:29.670Z,1045.2
2019-02-27T06:19:30.540Z,1045.13
2019-02-27T06:20:29.641Z,1045.09
2019-02-27T06:21:29.623Z,1045.05
2019-02-27T06:22:30.360Z,1045.02
2019-02-27T06:23:29.592Z,1044.95
2019-02-27T06:24:29.576Z,1044.98
2019-02-27T06:25:29.561Z,1044.82
2019-02-27T06:26:32.148Z,1044.81
2019-02-27T06:27:29.530Z,1044.76
2019-02-27T06:28:29.513Z,1044.71
2019-02-27T06:29:29.498Z,1044.62
2019-02-27T06:30:30.591Z,1044.61
2019-02-27T06:31:29.467Z,1044.55
2019-02-27T06:32:29.451Z,1044.48
2019-02-27T06:33:29.437Z,1044.43
2019-02-27T06:34:29.421Z,1044.39
2019-02-27T06:35:33.206Z,1044.31
2019-02-27T06:36:29.390Z,1044.31
2019-02-27T06:37:29.375Z,1044.31
2019-02-27T06:38:29.360Z,1044.31
2019-02-27T06:39:29.343Z,1044.28
2019-02-27T06:40:29.329Z,1044.24
2019-02-27T06:41:29.318Z,1044.16
2019-02-27T06:42:29.366Z,1044.11
2019-02-27T06:43:29.284Z,1044.08
2019-02-27T06:44:29.270Z,1044.01
2019-02-27T06:45:29.255Z,1044
2019-02-27T06:46:29.240Z,1043.87
2019-02-27T06:47:29.225Z,1043.78
2019-02-27T06:48:29.210Z,1043.75
2019-02-27T06:49:29.195Z,1043.66
2019-02-27T06:50:29.180Z,1043.55
2019-02-27T06:51:29.166Z,1043.43
2019-02-27T06:52:29.154Z,1043.33
2019-02-27T06:53:29.137Z,1043.23
2019-02-27T06:54:29.123Z,1043.07
2019-02-27T06:55:29.108Z,1043.01
2019-02-27T06:56:29.095Z,1042.87
2019-02-27T06:57:29.081Z,1042.8
2019-02-27T06:58:29.066Z,1042.74
2019-02-27T06:59:29.052Z,1042.7
2019-02-27T07:00:29.038Z,1042.67
2019-02-27T07:01:29.023Z,1042.6
2019-02-27T07:02:29.009Z,1042.45
2019-02-27T07:03:29.420Z,1042.39
2019-02-27T07:04:28.982Z,1042.23
2019-02-27T07:05:28.969Z,1042.13
2019-02-27T07:06:28.956Z,1042.01
2019-02-27T07:07:31.230Z,1042
2019-02-27T07:08:28.929Z,1041.93
2019-02-27T07:09:28.917Z,1041.79
2019-02-27T07:10:28.903Z,1041.65
2019-02-27T07:11:28.893Z,1041.61
2019-02-27T07:12:28.877Z,1041.51
2019-02-27T07:13:29.774Z,1041.42
2019-02-27T07:14:28.853Z,1041.28
2019-02-27T07:15:28.839Z,1041.18
2019-02-27T07:16:28.827Z,1041.09
2019-02-27T07:17:29.122Z,1040.86
2019-02-27T07:18:28.803Z,1040.85
2019-02-27T07:19:28.790Z,1040.74
2019-02-27T07:20:28.778Z,1040.67
2019-02-27T07:21:32.335Z,1040.56
2019-02-27T07:22:28.756Z,1040.48
2019-02-27T07:23:28.743Z,1040.45
2019-02-27T07:24:30.503Z,1040.4
2019-02-27T07:25:28.720Z,1040.34
2019-02-27T07:26:28.707Z,1040.35
2019-02-27T07:27:31.248Z,1040.32
2019-02-27T07:28:28.685Z,1040.29
2019-02-27T07:29:28.676Z,1040.23
2019-02-27T07:30:28.665Z,1040.09
2019-02-27T07:31:28.652Z,1040
2019-02-27T07:32:31.333Z,1039.95
2019-02-27T07:33:28.631Z,1039.81
2019-02-27T07:34:28.618Z,1039.74
2019-02-27T07:35:29.294Z,1039.65
2019-02-27T07:36:28.598Z,1039.58
2019-02-27T07:37:28.599Z,1039.51
2019-02-27T07:38:28.575Z,1039.48
2019-02-27T07:39:32.531Z,1039.47
2019-02-27T07:40:28.555Z,1039.38
2019-02-27T07:41:28.544Z,1039.32
2019-02-27T07:42:31.857Z,1039.26
2019-02-27T07:43:28.526Z,1039.23
2019-02-27T07:44:28.515Z,1039.17
2019-02-27T07:45:28.504Z,1039.13
2019-02-27T07:46:28.495Z,1039.05
2019-02-27T07:47:28.485Z,1039
2019-02-27T07:48:28.474Z,1038.93
2019-02-27T07:49:30.848Z,1038.9
2019-02-27T07:50:28.457Z,1038.91
2019-02-27T07:51:28.446Z,1038.9
2019-02-27T07:52:32.050Z,1038.84
2019-02-27T07:53:28.427Z,1038.82
2019-02-27T07:54:28.984Z,1038.73
2019-02-27T07:55:28.592Z,1038.75
2019-02-27T07:56:28.399Z,1038.81
2019-02-27T07:57:28.389Z,1038.98
2019-02-27T07:58:28.884Z,1039.21
2019-02-27T07:59:28.371Z,1039.4
2019-02-27T08:00:28.361Z,1039.52
2019-02-27T08:01:28.352Z,1039.65
2019-02-27T08:02:28.343Z,1039.83
2019-02-27T08:03:28.333Z,1039.97
2019-02-27T08:04:28.324Z,1040.08
2019-02-27T08:05:29.090Z,1040.21
2019-02-27T08:06:28.306Z,1040.32
2019-02-27T08:07:28.297Z,1040.41
2019-02-27T08:08:28.286Z,1040.46
2019-02-27T08:09:30.102Z,1040.51
2019-02-27T08:10:28.266Z,1040.58
2019-02-27T08:11:28.256Z,1040.64
2019-02-27T08:12:28.247Z,1040.62
2019-02-27T08:13:29.617Z,1040.67
2019-02-27T08:14:28.226Z,1040.72
2019-02-27T08:15:28.217Z,1040.75
2019-02-27T08:16:28.206Z,1040.77
2019-02-27T08:17:28.197Z,1040.79
2019-02-27T08:18:30.281Z,1040.8
2019-02-27T08:19:28.176Z,1040.79
2019-02-27T08:20:28.168Z,1040.75
2019-02-27T08:21:28.156Z,1040.77
2019-02-27T08:22:28.146Z,1040.8
2019-02-27T08:23:28.135Z,1040.84
2019-02-27T08:24:28.125Z,1040.84
2019-02-27T08:25:28.114Z,1040.87
2019-02-27T08:26:28.103Z,1040.87
2019-02-27T08:27:28.093Z,1040.85
2019-02-27T08:28:28.082Z,1040.83
2019-02-27T08:29:28.072Z,1040.82
2019-02-27T08:30:28.063Z,1040.85
2019-02-27T08:31:28.810Z,1040.94
2019-02-27T08:32:28.040Z,1040.93
2019-02-27T08:33:28.029Z,1040.94
2019-02-27T08:34:28.018Z,1040.93
2019-02-27T08:35:28.008Z,1040.95
2019-02-27T08:36:27.999Z,1040.96
2019-02-27T08:37:27.986Z,1040.96
2019-02-27T08:38:27.978Z,1040.95
2019-02-27T08:39:27.966Z,1040.95
2019-02-27T08:40:27.956Z,1040.97
2019-02-27T08:41:29.070Z,1040.95
2019-02-27T08:42:27.933Z,1040.94
2019-02-27T08:43:27.923Z,1040.98
2019-02-27T08:44:27.911Z,1040.94
2019-02-27T08:45:27.901Z,1040.92
2019-02-27T08:46:27.891Z,1040.92
2019-02-27T08:47:27.891Z,1040.92
2019-02-27T08:48:27.868Z,1040.92
2019-02-27T08:49:27.858Z,1040.9
2019-02-27T08:50:29.124Z,1040.88
2019-02-27T08:51:27.835Z,1040.9
2019-02-27T08:52:27.825Z,1040.84
2019-02-27T08:53:27.816Z,1040.85
2019-02-27T08:54:31.903Z,1040.82
2019-02-27T08:55:27.794Z,1040.81
2019-02-27T08:56:29.860Z,1040.75
2019-02-27T08:57:27.771Z,1040.72
2019-02-27T08:58:29.238Z,1040.66
2019-02-27T08:59:27.750Z,1040.65
2019-02-27T09:00:27.750Z,1040.68
2019-02-27T09:01:27.727Z,1040.65
2019-02-27T09:02:29.376Z,1040.58
2019-02-27T09:03:27.707Z,1040.6
2019-02-27T09:04:27.696Z,1040.57
2019-02-27T09:05:27.685Z,1040.55
2019-02-27T09:06:28.242Z,1040.52
2019-02-27T09:07:27.665Z,1040.45
2019-02-27T09:08:27.665Z,1040.44
2019-02-27T09:09:27.642Z,1040.45
2019-02-27T09:10:30.368Z,1040.38
2019-02-27T09:11:27.622Z,1040.41
2019-02-27T09:12:27.626Z,1040.35
2019-02-27T09:13:27.600Z,1040.3
2019-02-27T09:14:27.589Z,1040.32
2019-02-27T09:15:27.584Z,1040.28
2019-02-27T09:16:27.568Z,1040.25
2019-02-27T09:17:27.905Z,1040.25
2019-02-27T09:18:27.548Z,1040.23
2019-02-27T09:19:27.538Z,1040.15
2019-02-27T09:20:27.527Z,1040.14
2019-02-27T09:21:28.482Z,1040.05
2019-02-27T09:22:27.506Z,1040.06
2019-02-27T09:23:27.495Z,1040
2019-02-27T09:24:27.485Z,1039.96
2019-02-27T09:25:27.475Z,1039.89
2019-02-27T09:26:27.465Z,1039.84
2019-02-27T09:27:27.454Z,1039.86
2019-02-27T09:28:27.444Z,1039.79
2019-02-27T09:29:27.435Z,1039.77
2019-02-27T09:30:29.251Z,1039.77
2019-02-27T09:31:27.413Z,1039.74
2019-02-27T09:32:27.403Z,1039.74
2019-02-27T09:33:27.393Z,1039.67
2019-02-27T09:34:27.479Z,1039.66
2019-02-27T09:35:32.193Z,1039.59
2019-02-27T09:36:27.363Z,1039.57
2019-02-27T09:37:27.358Z,1039.57
2019-02-27T09:38:27.343Z,1039.54
2019-02-27T09:39:30.603Z,1039.49
2019-02-27T09:40:29.335Z,1039.43
2019-02-27T09:41:27.313Z,1039.44
2019-02-27T09:42:27.307Z,1039.42
2019-02-27T09:43:27.934Z,1039.4
2019-02-27T09:44:27.283Z,1039.35
2019-02-27T09:45:27.326Z,1039.3
2019-02-27T09:46:27.265Z,1039.32
2019-02-27T09:47:27.253Z,1039.27
2019-02-27T09:48:27.249Z,1039.28
2019-02-27T09:49:27.234Z,1039.25
2019-02-27T09:50:27.225Z,1039.19
2019-02-27T09:51:27.216Z,1039.15
2019-02-27T09:52:27.765Z,1039.09
2019-02-27T09:53:27.196Z,1039.09
2019-02-27T09:54:27.186Z,1039.08
2019-02-27T09:55:27.176Z,1039.07
2019-02-27T09:56:29.101Z,1038.95
2019-02-27T09:57:27.219Z,1038.95
2019-02-27T09:58:27.149Z,1038.89
2019-02-27T09:59:27.139Z,1038.84
2019-02-27T10:00:27.129Z,1038.81
2019-02-27T10:01:27.119Z,1038.78
2019-02-27T10:02:27.111Z,1038.8
2019-02-27T10:03:27.100Z,1038.78
2019-02-27T10:04:28.796Z,1038.76
2019-02-27T10:05:27.081Z,1038.77
2019-02-27T10:06:27.072Z,1038.71
2019-02-27T10:07:27.065Z,1038.71
2019-02-27T10:08:27.054Z,1038.68
2019-02-27T10:09:27.044Z,1038.62
2019-02-27T10:10:27.035Z,1038.62
2019-02-27T10:11:27.024Z,1038.58
2019-02-27T10:12:27.715Z,1038.52
2019-02-27T10:13:27.007Z,1038.49
2019-02-27T10:14:26.997Z,1038.48
2019-02-27T10:15:26.988Z,1038.49
2019-02-27T10:16:26.983Z,1038.51
2019-02-27T10:17:28.534Z,1038.48
2019-02-27T10:18:26.960Z,1038.52
2019-02-27T10:19:27.706Z,1038.48
2019-02-27T10:20:26.942Z,1038.46
2019-02-27T10:21:26.933Z,1038.46
2019-02-27T10:22:26.923Z,1038.48
2019-02-27T10:23:30.130Z,1038.49
2019-02-27T10:24:26.907Z,1038.43
2019-02-27T10:25:26.895Z,1038.46
2019-02-27T10:26:26.886Z,1038.38
2019-02-27T10:27:28.684Z,1038.38
2019-02-27T10:28:26.869Z,1038.31
2019-02-27T10:29:26.859Z,1038.31
2019-02-27T10:30:26.858Z,1038.24
2019-02-27T10:31:26.987Z,1038.21
2019-02-27T10:32:26.833Z,1038.18
2019-02-27T10:33:26.823Z,1038.22
2019-02-27T10:34:26.814Z,1038.21
2019-02-27T10:35:29.367Z,1038.15
2019-02-27T10:36:26.796Z,1038.17
2019-02-27T10:37:26.846Z,1038.11
2019-02-27T10:38:26.882Z,1038.07
2019-02-27T10:39:26.770Z,1038.03
2019-02-27T10:40:26.760Z,1037.96
2019-02-27T10:41:26.752Z,1037.98
2019-02-27T10:42:26.743Z,1037.94
2019-02-27T10:43:26.735Z,1037.86
2019-02-27T10:44:26.725Z,1037.84
2019-02-27T10:45:26.718Z,1037.75
2019-02-27T10:46:26.707Z,1037.72
2019-02-27T10:47:26.699Z,1037.68
2019-02-27T10:48:26.690Z,1037.64
2019-02-27T10:49:26.682Z,1037.63
2019-02-27T10:50:26.673Z,1037.57
2019-02-27T10:51:26.667Z,1037.55
2019-02-27T10:52:26.656Z,1037.51
2019-02-27T10:53:27.355Z,1037.5
2019-02-27T10:54:26.640Z,1037.54
2019-02-27T10:55:27.032Z,1037.52
2019-02-27T10:56:26.624Z,1037.46
2019-02-27T10:57:31.402Z,1037.44
2019-02-27T10:58:26.603Z,1037.42
2019-02-27T10:59:26.595Z,1037.39
2019-02-27T11:00:26.587Z,1037.33
2019-02-27T11:01:26.579Z,1037.35
2019-02-27T11:02:26.571Z,1037.31
2019-02-27T11:03:27.412Z,1037.31
2019-02-27T11:04:26.554Z,1037.25
2019-02-27T11:05:26.585Z,1037.23
2019-02-27T11:06:33.649Z,1037.17
2019-02-27T11:07:26.529Z,1037.16
2019-02-27T11:08:28.568Z,1037.14
2019-02-27T11:09:26.513Z,1037.07
2019-02-27T11:10:26.505Z,1037.07
2019-02-27T11:11:26.495Z,1037.07
2019-02-27T11:12:26.806Z,1037.04
2019-02-27T11:13:26.483Z,1036.99
2019-02-27T11:14:31.603Z,1037.02
2019-02-27T11:15:26.462Z,1036.97
2019-02-27T11:16:27.933Z,1036.97
2019-02-27T11:17:26.446Z,1036.92
2019-02-27T11:18:26.438Z,1036.88
2019-02-27T11:19:26.430Z,1036.84
2019-02-27T11:20:26.422Z,1036.85
2019-02-27T11:21:26.413Z,1036.84
2019-02-27T11:22:26.408Z,1036.83
2019-02-27T11:23:26.398Z,1036.84
2019-02-27T11:24:26.389Z,1036.78
2019-02-27T11:25:26.382Z,1036.79
2019-02-27T11:26:26.373Z,1036.73
2019-02-27T11:27:26.366Z,1036.7
2019-02-27T11:28:26.358Z,1036.72
2019-02-27T11:29:26.351Z,1036.66
2019-02-27T11:30:26.343Z,1036.65
2019-02-27T11:31:26.334Z,1036.63
2019-02-27T11:32:26.327Z,1036.6
2019-02-27T11:33:26.321Z,1036.58
2019-02-27T11:34:26.310Z,1036.51
2019-02-27T11:35:26.303Z,1036.48
2019-02-27T11:36:26.295Z,1036.44
2019-02-27T11:37:26.288Z,1036.46
2019-02-27T11:38:26.280Z,1036.41
2019-02-27T11:39:26.272Z,1036.42
2019-02-27T11:40:26.272Z,1036.37
2019-02-27T11:41:26.256Z,1036.33
2019-02-27T11:42:28.909Z,1036.27
2019-02-27T11:43:26.239Z,1036.28
2019-02-27T11:44:26.233Z,1036.24
2019-02-27T11:45:26.226Z,1036.23
2019-02-27T11:46:26.218Z,1036.23
2019-02-27T11:47:26.210Z,1036.16
2019-02-27T11:48:26.202Z,1036.16
2019-02-27T11:49:26.194Z,1036.12
2019-02-27T11:50:26.194Z,1036.12
2019-02-27T11:51:27.852Z,1036.09
2019-02-27T11:52:28.589Z,1036.06
2019-02-27T11:53:26.163Z,1036.02
2019-02-27T11:54:26.157Z,1035.97
2019-02-27T11:55:26.150Z,1035.97
2019-02-27T11:56:26.144Z,1035.92
2019-02-27T11:57:27.267Z,1035.89
2019-02-27T11:58:26.126Z,1035.9
2019-02-27T11:59:26.119Z,1035.82
2019-02-27T12:00:26.114Z,1035.84
2019-02-27T12:01:26.104Z,1035.76
2019-02-27T12:02:28.852Z,1035.7
2019-02-27T12:03:26.090Z,1035.7
2019-02-27T12:04:26.081Z,1035.67
2019-02-27T12:05:30.115Z,1035.62
2019-02-27T12:06:26.067Z,1035.62
2019-02-27T12:07:26.060Z,1035.57
2019-02-27T12:08:26.815Z,1035.51
2019-02-27T12:09:26.045Z,1035.56